This is the latest recevied weather packets stored in our database for station/object KM4CNW. If no packets are shown the sender has not sent any weather packets the latest 10 day(s).
| Time | Temp. | Humidity | Pressure | Rain* | Wind** | Luminosity | Snow |
|---|---|---|---|---|---|---|---|
| 1777656697 | 18.89° C | 44% | 1008.5 hPa | 0 mm | - | 935 W/m² | - |
| 1777656393 | 18.89° C | 43% | 1008.4 hPa | 0 mm | - | 915 W/m² | - |
| 1777656088 | 18.89° C | 43% | 1008.8 hPa | 0 mm | - | 918 W/m² | - |
| 1777655784 | 18.33° C | 42% | 1008.8 hPa | 0 mm | - | 904 W/m² | - |
| 1777655482 | 17.78° C | 43% | 1009.1 hPa | 0 mm | - | 858 W/m² | - |
| 1777655179 | 18.33° C | 43% | 1009.2 hPa | 0 mm | - | 920 W/m² | - |
| 1777654875 | 17.78° C | 46% | 1009.2 hPa | 0 mm | - | 979 W/m² | - |
| 1777654573 | 17.78° C | 45% | 1009.3 hPa | 0 mm | - | 986 W/m² | - |
| 1777654270 | 18.33° C | 44% | 1009.2 hPa | 0 mm | - | 903 W/m² | - |
| 1777653968 | 18.33° C | 44% | 1009.3 hPa | 0 mm | - | 883 W/m² | - |
| 1777653664 | 17.78° C | 43% | 1009.3 hPa | 0 mm | - | 877 W/m² | - |
| 1777653361 | 17.22° C | 44% | 1009.4 hPa | 0 mm | - | 913 W/m² | - |
| 1777653058 | 17.78° C | 44% | 1009.7 hPa | 0 mm | - | 945 W/m² | - |
| 1777652754 | 16.67° C | 44% | 1009.5 hPa | 0 mm | - | 864 W/m² | - |
| 1777652451 | 17.22° C | 43% | 1009.9 hPa | 0 mm | - | 731 W/m² | - |
| 1777652149 | 17.22° C | 46% | 1009.9 hPa | 0 mm | - | 995 W/m² | - |
| 1777651845 | 17.22° C | 42% | 1009.6 hPa | 0 mm | - | 945 W/m² | - |
| 1777651542 | 16.67° C | 43% | 1009.6 hPa | 0 mm | - | 738 W/m² | - |
| 1777651239 | 16.11° C | 45% | 1009.9 hPa | 0 mm | - | 898 W/m² | - |
| 1777650935 | 16.67° C | 43% | 1010 hPa | 0 mm | - | 594 W/m² | - |
| 1777650633 | 17.22° C | 44% | 1010 hPa | 0 mm | - | 837 W/m² | - |
| 1777650330 | 16.67° C | 43% | 1009.9 hPa | 0 mm | - | 754 W/m² | - |
| 1777650027 | 16.67° C | 45% | 1010.1 hPa | 0 mm | - | 798 W/m² | - |
| 1777649725 | 16.67° C | 44% | 1010.1 hPa | 0 mm | - | 858 W/m² | - |
| 1777649420 | 16.11° C | 44% | 1010.1 hPa | 0 mm | - | 788 W/m² | - |
* Rain latest hour (hover to see other rain measurements)
** Current wind speed in m/s (hover to see current wind gust speed)